createdAt,value
2023-01-04T00:01:17.044Z,54.24
2023-01-04T00:03:18.908Z,54.33
2023-01-04T00:05:20.573Z,54.36
2023-01-04T00:07:22.550Z,54.20
2023-01-04T00:09:27.344Z,54.73
2023-01-04T00:11:28.898Z,54.62
2023-01-04T00:13:34.130Z,54.19
2023-01-04T00:15:35.728Z,54.59
2023-01-04T00:17:37.479Z,54.48
2023-01-04T00:19:39.091Z,54.25
2023-01-04T00:21:41.121Z,54.31
2023-01-04T00:23:44.209Z,54.52
2023-01-04T00:25:45.839Z,54.47
2023-01-04T00:27:47.410Z,54.27
2023-01-04T00:29:48.987Z,54.36
2023-01-04T00:31:51.252Z,54.36
2023-01-04T00:33:57.274Z,54.25
2023-01-04T00:36:07.238Z,54.55
2023-01-04T00:38:09.196Z,54.41
2023-01-04T00:40:13.469Z,54.66
2023-01-04T00:42:15.292Z,54.54
2023-01-04T00:44:19.115Z,54.91
2023-01-04T00:46:20.584Z,54.80
2023-01-04T00:48:22.530Z,54.62
2023-01-04T00:50:24.012Z,55.07
2023-01-04T00:52:26.047Z,54.63
2023-01-04T00:54:28.126Z,54.99
2023-01-04T00:56:30.733Z,54.92
2023-01-04T00:58:32.319Z,54.97
2023-01-04T01:00:38.081Z,54.75
2023-01-04T01:02:39.978Z,54.98
2023-01-04T01:04:41.696Z,54.96
2023-01-04T01:06:46.775Z,54.95
2023-01-04T01:08:48.623Z,54.92
2023-01-04T01:10:53.343Z,55.05
2023-01-04T01:12:54.972Z,55.18
2023-01-04T01:15:02.475Z,55.06
2023-01-04T01:17:11.310Z,55.36
2023-01-04T01:19:13.901Z,55.26
2023-01-04T01:21:19.020Z,55.02
2023-01-04T01:23:23.702Z,55.10
2023-01-04T01:25:27.662Z,55.16
2023-01-04T01:27:29.429Z,55.11
2023-01-04T01:29:31.189Z,55.03
2023-01-04T01:31:32.835Z,55.46
2023-01-04T01:33:42.992Z,55.22
2023-01-04T01:35:44.679Z,55.19
2023-01-04T01:37:46.298Z,55.19
2023-01-04T01:39:47.892Z,54.85
2023-01-04T01:41:49.431Z,54.92
2023-01-04T01:44:13.188Z,54.99
2023-01-04T01:46:15.981Z,55.02
2023-01-04T01:48:23.645Z,54.81
2023-01-04T01:50:39.805Z,54.86
2023-01-04T01:52:41.621Z,54.78
2023-01-04T01:54:47.082Z,54.90
2023-01-04T01:56:51.322Z,54.74
2023-01-04T01:58:55.936Z,54.58
2023-01-04T02:01:37.580Z,54.67
2023-01-04T02:03:42.280Z,54.88
2023-01-04T02:06:21.990Z,54.77
2023-01-04T02:08:26.936Z,54.97
2023-01-04T02:10:28.591Z,54.94
2023-01-04T02:12:30.365Z,55.42
2023-01-04T02:14:32.266Z,55.44
2023-01-04T02:16:52.996Z,54.85
2023-01-04T02:19:42.101Z,55.04
2023-01-04T02:22:01.426Z,55.15
2023-01-04T02:24:35.189Z,55.10
2023-01-04T02:26:56.085Z,55.12
2023-01-04T02:29:10.214Z,55.04
2023-01-04T02:31:37.769Z,55.26
2023-01-04T02:33:49.868Z,54.93
2023-01-04T02:36:02.983Z,55.11
2023-01-04T02:38:17.333Z,55.32
2023-01-04T02:40:26.865Z,54.84
2023-01-04T02:43:15.548Z,54.83
2023-01-04T02:45:22.604Z,54.93
2023-01-04T02:47:57.782Z,55.06
2023-01-04T02:50:21.017Z,54.98
2023-01-04T02:52:23.791Z,54.96
2023-01-04T02:54:30.879Z,55.41
2023-01-04T02:57:05.973Z,55.21
2023-01-04T02:59:40.500Z,54.99
2023-01-04T03:02:22.487Z,55.52
2023-01-04T03:04:45.796Z,55.46
2023-01-04T03:06:58.596Z,55.54
2023-01-04T03:09:18.214Z,55.63
2023-01-04T03:11:38.455Z,55.55
2023-01-04T03:13:45.900Z,55.43
2023-01-04T03:16:11.936Z,55.56
2023-01-04T03:18:22.687Z,55.49
2023-01-04T03:20:28.805Z,55.83
2023-01-04T03:22:56.690Z,55.76
2023-01-04T03:25:18.050Z,55.64
2023-01-04T03:27:42.725Z,55.97
2023-01-04T03:30:09.637Z,56.04
2023-01-04T03:32:32.372Z,55.85
2023-01-04T03:34:52.778Z,55.75
2023-01-04T03:37:20.722Z,56.12
2023-01-04T03:39:50.073Z,56.08
2023-01-04T03:42:15.857Z,56.12
2023-01-04T03:44:48.679Z,56.38
2023-01-04T03:47:15.389Z,56.26
2023-01-04T03:49:27.621Z,56.45
2023-01-04T03:51:34.707Z,56.26
2023-01-04T03:53:42.824Z,56.23
2023-01-04T03:55:48.632Z,56.16
2023-01-04T03:57:50.911Z,56.22
2023-01-04T04:00:01.395Z,56.38
2023-01-04T04:02:03.031Z,56.20
2023-01-04T04:04:26.187Z,56.65
2023-01-04T04:06:48.935Z,56.39
2023-01-04T04:08:50.355Z,56.33
2023-01-04T04:10:52.163Z,56.61
2023-01-04T04:12:59.248Z,56.80
2023-01-04T04:15:00.849Z,56.49
2023-01-04T04:17:02.612Z,56.93
2023-01-04T04:19:08.578Z,56.53
2023-01-04T04:21:12.966Z,57.03
2023-01-04T04:23:14.652Z,56.69
2023-01-04T04:25:22.308Z,56.98
2023-01-04T04:27:24.664Z,56.90
2023-01-04T04:29:26.157Z,56.70
2023-01-04T04:31:36.413Z,56.81
2023-01-04T04:33:38.280Z,56.61
2023-01-04T04:35:39.889Z,57.12
2023-01-04T04:37:42.575Z,57.08
2023-01-04T04:39:44.183Z,57.02
2023-01-04T04:41:45.802Z,56.94
2023-01-04T04:43:47.268Z,56.97
2023-01-04T04:45:48.971Z,57.11
2023-01-04T04:47:50.492Z,56.83
2023-01-04T04:49:54.406Z,56.75
2023-01-04T04:51:56.055Z,57.07
2023-01-04T04:53:57.660Z,56.97
2023-01-04T04:55:59.634Z,56.62
2023-01-04T04:58:03.811Z,57.48
2023-01-04T05:00:06.062Z,57.29
2023-01-04T05:02:07.719Z,57.35
2023-01-04T05:04:14.204Z,57.20
2023-01-04T05:06:16.199Z,57.51
2023-01-04T05:08:20.841Z,57.56
2023-01-04T05:10:22.435Z,57.25
2023-01-04T05:12:43.059Z,57.33
2023-01-04T05:14:44.692Z,57.16
2023-01-04T05:16:46.377Z,57.10
2023-01-04T05:18:56.731Z,57.09
2023-01-04T05:20:58.614Z,57.06
2023-01-04T05:23:00.263Z,57.36
2023-01-04T05:25:01.847Z,56.99
2023-01-04T05:27:03.370Z,57.06
2023-01-04T05:29:04.915Z,57.29
2023-01-04T05:31:09.752Z,57.13
2023-01-04T05:33:12.141Z,57.12
2023-01-04T05:35:18.968Z,57.47
2023-01-04T05:37:20.529Z,57.52
2023-01-04T05:39:22.169Z,57.76
2023-01-04T05:41:42.918Z,57.31
2023-01-04T05:43:44.436Z,57.75
2023-01-04T05:45:54.972Z,57.72
2023-01-04T05:47:59.508Z,57.57
2023-01-04T05:50:01.609Z,57.41
2023-01-04T05:52:03.265Z,57.50
2023-01-04T05:54:07.474Z,57.58
2023-01-04T05:56:09.177Z,57.22
2023-01-04T05:58:10.708Z,57.48
2023-01-04T06:00:15.077Z,57.42
2023-01-04T06:02:25.723Z,57.65
2023-01-04T06:04:27.427Z,57.61
2023-01-04T06:06:29.383Z,57.65
2023-01-04T06:08:30.941Z,57.82
2023-01-04T06:10:32.495Z,57.48
2023-01-04T06:12:36.487Z,57.47
2023-01-04T06:14:46.975Z,57.96
2023-01-04T06:16:48.748Z,57.50
2023-01-04T06:18:54.986Z,57.38
2023-01-04T06:21:01.317Z,57.51
2023-01-04T06:23:03.006Z,57.47
2023-01-04T06:25:08.342Z,58.05
2023-01-04T06:27:10.000Z,58.08
2023-01-04T06:29:12.089Z,57.92
2023-01-04T06:31:14.234Z,57.67
2023-01-04T06:33:15.827Z,58.02
2023-01-04T06:35:17.562Z,57.57
2023-01-04T06:37:19.219Z,57.83
2023-01-04T06:39:20.762Z,57.78
2023-01-04T06:41:25.240Z,57.60
2023-01-04T06:43:26.708Z,57.95
2023-01-04T06:45:28.706Z,57.88
2023-01-04T06:47:30.458Z,57.95
2023-01-04T06:49:32.058Z,57.96
2023-01-04T06:51:33.600Z,57.93
2023-01-04T06:53:35.080Z,57.91
2023-01-04T06:55:37.278Z,57.50
2023-01-04T06:57:38.849Z,57.60
2023-01-04T06:59:40.578Z,57.61
2023-01-04T07:01:42.214Z,57.61
2023-01-04T07:03:43.754Z,57.74
2023-01-04T07:05:45.624Z,57.89
2023-01-04T07:07:47.258Z,57.66
2023-01-04T07:09:48.857Z,57.94
2023-01-04T07:11:50.578Z,57.72
2023-01-04T07:13:52.909Z,57.85
2023-01-04T07:15:56.276Z,57.74
2023-01-04T07:17:57.981Z,57.66
2023-01-04T07:19:59.617Z,57.90
2023-01-04T07:22:04.312Z,58.06
2023-01-04T07:24:05.922Z,57.93
2023-01-04T07:26:10.004Z,58.02
2023-01-04T07:28:11.626Z,58.04
2023-01-04T07:30:14.198Z,58.02
2023-01-04T07:32:16.770Z,57.90
2023-01-04T07:34:23.158Z,58.19
2023-01-04T07:36:24.799Z,57.98
2023-01-04T07:38:26.331Z,57.61
2023-01-04T07:40:27.936Z,58.00
2023-01-04T07:42:29.773Z,58.04
2023-01-04T07:44:31.380Z,58.06
2023-01-04T07:46:34.214Z,57.92
2023-01-04T07:48:35.904Z,57.71
2023-01-04T07:50:37.573Z,57.75
2023-01-04T07:52:39.323Z,57.77
2023-01-04T07:54:43.175Z,58.19
2023-01-04T07:56:46.061Z,57.83
2023-01-04T07:58:57.060Z,57.60
2023-01-04T08:01:19.562Z,58.56
2023-01-04T08:03:24.577Z,57.93
2023-01-04T08:05:31.631Z,58.10
2023-01-04T08:07:33.215Z,58.43
2023-01-04T08:09:34.787Z,58.37
2023-01-04T08:11:39.092Z,57.95
2023-01-04T08:13:41.544Z,58.14
2023-01-04T08:15:53.032Z,58.22
2023-01-04T08:17:56.799Z,58.26
2023-01-04T08:19:58.494Z,58.21
2023-01-04T08:22:00.173Z,58.45
2023-01-04T08:24:07.449Z,58.24
2023-01-04T08:26:12.877Z,58.59
2023-01-04T08:28:14.512Z,58.20
2023-01-04T08:30:16.356Z,58.33
2023-01-04T08:32:18.104Z,58.33
2023-01-04T08:34:19.672Z,58.54
2023-01-04T08:36:26.727Z,58.39
2023-01-04T08:38:59.218Z,58.55
2023-01-04T08:41:00.083Z,58.80
2023-01-04T08:43:03.657Z,58.44
2023-01-04T08:45:06.217Z,58.59
2023-01-04T08:47:08.259Z,58.71
2023-01-04T08:49:09.930Z,58.76
2023-01-04T08:51:14.386Z,59.02
2023-01-04T08:53:19.029Z,58.72
2023-01-04T08:55:23.536Z,58.82
2023-01-04T08:57:27.688Z,58.93
2023-01-04T08:59:29.860Z,58.76
2023-01-04T09:01:32.843Z,58.55
2023-01-04T09:03:35.759Z,58.56
2023-01-04T09:05:37.572Z,58.71
2023-01-04T09:07:44.992Z,58.54
2023-01-04T09:09:46.669Z,58.54
2023-01-04T09:11:49.407Z,58.79
2023-01-04T09:14:06.836Z,58.36
2023-01-04T09:16:12.966Z,58.77
2023-01-04T09:18:31.962Z,58.62
2023-01-04T09:20:33.903Z,58.16
2023-01-04T09:22:36.057Z,58.45
2023-01-04T09:24:37.686Z,58.66
2023-01-04T09:26:39.148Z,58.64
2023-01-04T09:28:41.984Z,58.54
2023-01-04T09:30:43.681Z,58.56
2023-01-04T09:32:45.456Z,58.46
2023-01-04T09:34:47.433Z,58.67
2023-01-04T09:36:49.209Z,59.01
2023-01-04T09:38:52.295Z,58.73
2023-01-04T09:40:57.713Z,59.02
2023-01-04T09:43:21.211Z,58.52
2023-01-04T09:45:26.983Z,58.57
2023-01-04T09:47:56.447Z,58.86
2023-01-04T09:50:05.089Z,58.62
2023-01-04T09:52:27.693Z,58.75
2023-01-04T09:54:40.814Z,58.67
2023-01-04T09:56:53.477Z,58.69
2023-01-04T09:58:56.037Z,58.38
2023-01-04T10:01:11.694Z,58.30
2023-01-04T10:03:36.634Z,58.50
2023-01-04T10:05:38.577Z,58.41
2023-01-04T10:07:40.106Z,58.10
2023-01-04T10:09:41.660Z,58.13
2023-01-04T10:11:49.679Z,58.19
2023-01-04T10:14:17.108Z,58.05
2023-01-04T10:17:14.860Z,58.24
2023-01-04T10:22:06.887Z,58.35
2023-01-04T10:24:25.670Z,58.24
2023-01-04T10:26:27.731Z,57.96
2023-01-04T10:28:54.288Z,57.93
2023-01-04T10:31:40.492Z,57.92
2023-01-04T10:33:50.447Z,58.00
2023-01-04T10:36:00.562Z,57.65
2023-01-04T10:38:10.107Z,57.77
2023-01-04T10:40:20.275Z,58.07
2023-01-04T10:42:34.193Z,58.06
2023-01-04T10:45:08.618Z,57.99
2023-01-04T10:47:20.044Z,57.58
2023-01-04T10:49:46.009Z,57.87
2023-01-04T10:51:57.299Z,57.88
2023-01-04T10:54:06.632Z,57.77
2023-01-04T10:56:27.206Z,57.69
2023-01-04T10:58:52.371Z,57.46
2023-01-04T11:01:03.921Z,57.96
2023-01-04T11:03:19.110Z,57.77
2023-01-04T11:05:29.731Z,57.61
2023-01-04T11:07:39.688Z,57.73
2023-01-04T11:10:10.885Z,57.70
2023-01-04T11:12:15.689Z,57.92
2023-01-04T11:14:17.725Z,57.85
2023-01-04T11:16:19.963Z,57.78
2023-01-04T11:18:22.002Z,57.57
2023-01-04T11:20:26.857Z,57.76
2023-01-04T11:22:49.640Z,57.64
2023-01-04T11:27:27.261Z,57.96
2023-01-04T11:29:50.057Z,57.70
2023-01-04T11:31:57.038Z,57.74
2023-01-04T11:33:59.932Z,57.79
2023-01-04T11:36:02.964Z,57.93
2023-01-04T11:40:28.657Z,57.81
2023-01-04T11:42:31.621Z,57.70
2023-01-04T11:44:35.022Z,57.80
2023-01-04T11:46:39.836Z,57.75
2023-01-04T11:48:44.161Z,57.71
2023-01-04T11:50:55.841Z,57.80
2023-01-04T11:52:57.274Z,57.70
2023-01-04T11:55:23.931Z,57.75
2023-01-04T11:57:28.437Z,57.55
2023-01-04T11:59:30.094Z,57.60
2023-01-04T12:01:35.175Z,57.72
2023-01-04T12:03:39.281Z,57.74
2023-01-04T12:05:41.396Z,57.81
2023-01-04T12:07:43.266Z,57.95
2023-01-04T12:09:44.971Z,57.45
2023-01-04T12:11:53.198Z,58.07
2023-01-04T12:13:54.970Z,58.12
2023-01-04T12:16:11.458Z,58.00
2023-01-04T12:18:22.818Z,57.56
2023-01-04T12:20:27.905Z,57.71
2023-01-04T12:22:40.996Z,57.92
2023-01-04T12:24:46.046Z,57.58
2023-01-04T12:26:48.670Z,58.02
2023-01-04T12:29:24.636Z,58.00
2023-01-04T12:31:34.925Z,58.10
2023-01-04T12:33:38.212Z,57.85
2023-01-04T12:35:59.711Z,58.36
2023-01-04T12:38:02.485Z,58.13
2023-01-04T12:40:42.857Z,58.20
2023-01-04T12:43:16.716Z,58.43
2023-01-04T12:45:22.565Z,58.16
2023-01-04T12:47:45.796Z,58.13
2023-01-04T12:49:57.680Z,58.27
2023-01-04T12:54:46.669Z,58.05
2023-01-04T12:57:17.086Z,57.89
2023-01-04T12:59:33.408Z,58.06
2023-01-04T13:01:36.580Z,58.04
2023-01-04T13:03:48.006Z,57.96
2023-01-04T13:06:04.211Z,58.29
2023-01-04T13:08:11.397Z,58.09
2023-01-04T13:10:19.132Z,59.30
2023-01-04T13:12:42.398Z,59.11
2023-01-04T13:14:49.477Z,58.69
2023-01-04T13:17:13.109Z,58.48
2023-01-04T13:19:28.710Z,59.81
2023-01-04T13:21:39.325Z,59.03
2023-01-04T13:23:50.038Z,58.74
2023-01-04T13:25:52.864Z,58.60
2023-01-04T13:28:05.177Z,58.57
2023-01-04T13:30:07.021Z,58.69
2023-01-04T13:32:29.988Z,58.75
2023-01-04T13:34:53.315Z,58.75
2023-01-04T13:37:02.990Z,58.76
2023-01-04T13:39:07.632Z,58.80
2023-01-04T13:41:21.327Z,58.60
2023-01-04T13:43:44.503Z,58.69
2023-01-04T13:46:06.721Z,58.57
2023-01-04T13:48:14.540Z,58.54
2023-01-04T13:50:40.421Z,58.57
2023-01-04T13:52:56.474Z,58.76
2023-01-04T13:55:21.024Z,58.69
2023-01-04T13:57:22.781Z,58.71
2023-01-04T13:59:24.633Z,58.76
2023-01-04T14:01:38.924Z,58.51
2023-01-04T14:03:53.611Z,58.61
2023-01-04T14:06:03.023Z,58.58
2023-01-04T14:08:11.685Z,58.80
2023-01-04T14:10:18.903Z,58.71
2023-01-04T14:12:24.947Z,58.79
2023-01-04T14:15:00.463Z,58.24
2023-01-04T14:17:44.467Z,58.12
2023-01-04T14:19:56.785Z,58.22
2023-01-04T14:21:58.484Z,58.43
2023-01-04T14:24:00.116Z,58.31
2023-01-04T14:26:02.006Z,58.05
2023-01-04T14:28:19.253Z,58.11
2023-01-04T14:30:20.953Z,57.99
2023-01-04T14:32:22.890Z,57.96
2023-01-04T14:34:24.464Z,57.93
2023-01-04T14:36:32.428Z,58.11
2023-01-04T14:38:38.846Z,57.98
2023-01-04T14:40:41.295Z,57.78
2023-01-04T14:42:42.911Z,57.84
2023-01-04T14:44:45.943Z,58.10
2023-01-04T14:46:56.223Z,57.85
2023-01-04T14:48:58.922Z,58.01
2023-01-04T14:51:01.036Z,58.10
2023-01-04T14:53:02.675Z,58.41
2023-01-04T14:55:05.670Z,58.17
2023-01-04T14:57:08.823Z,58.20
2023-01-04T14:59:10.785Z,58.38
2023-01-04T15:01:13.062Z,58.31
2023-01-04T15:03:14.937Z,58.51
2023-01-04T15:05:16.680Z,58.58
2023-01-04T15:07:35.483Z,58.73
2023-01-04T15:09:37.209Z,58.80
2023-01-04T15:11:42.564Z,58.77
2023-01-04T15:13:44.372Z,58.85
2023-01-04T15:15:46.068Z,58.75
2023-01-04T15:17:48.503Z,58.77
2023-01-04T15:19:53.143Z,58.78
2023-01-04T15:21:54.764Z,58.87
2023-01-04T15:23:56.255Z,58.83
2023-01-04T15:25:58.064Z,58.89
2023-01-04T15:27:59.705Z,59.11
2023-01-04T15:30:01.535Z,59.06
2023-01-04T15:32:03.197Z,59.01
2023-01-04T15:34:07.539Z,59.04
2023-01-04T15:36:13.620Z,59.13
2023-01-04T15:38:18.528Z,59.04
2023-01-04T15:40:23.025Z,59.26
2023-01-04T15:42:46.399Z,59.21
2023-01-04T15:44:47.949Z,59.13
2023-01-04T15:46:51.383Z,59.15
2023-01-04T15:49:01.622Z,59.24
2023-01-04T15:51:06.993Z,59.13
2023-01-04T15:53:16.872Z,59.29
2023-01-04T15:55:20.567Z,59.29
2023-01-04T15:57:22.143Z,59.31
2023-01-04T15:59:24.459Z,59.48
2023-01-04T16:01:26.252Z,59.23
2023-01-04T16:03:27.995Z,58.91
2023-01-04T16:05:39.732Z,59.23
2023-01-04T16:07:41.317Z,59.30
2023-01-04T16:09:42.990Z,59.50
2023-01-04T16:12:09.034Z,59.26
2023-01-04T16:14:10.574Z,59.33
2023-01-04T16:16:13.038Z,59.18
2023-01-04T16:18:17.822Z,59.34
2023-01-04T16:20:20.325Z,59.31
2023-01-04T16:22:29.098Z,59.23
2023-01-04T16:25:09.423Z,59.24
2023-01-04T16:26:52.450Z,59.45
2023-01-04T16:28:58.378Z,59.76
2023-01-04T16:31:00.543Z,59.47
2023-01-04T16:33:05.000Z,59.43
2023-01-04T16:35:18.690Z,59.31
2023-01-04T16:37:20.685Z,59.48
2023-01-04T16:39:42.038Z,59.64
2023-01-04T16:41:44.987Z,59.45
2023-01-04T16:43:49.172Z,59.61
2023-01-04T16:45:50.800Z,59.65
2023-01-04T16:47:54.040Z,59.48
2023-01-04T16:49:58.866Z,59.47
2023-01-04T16:52:05.459Z,59.55
2023-01-04T16:54:12.347Z,59.62
2023-01-04T16:56:16.188Z,59.59
2023-01-04T16:58:18.142Z,59.54
2023-01-04T17:00:19.923Z,59.61
2023-01-04T17:02:23.054Z,59.61
2023-01-04T17:04:25.167Z,59.56
2023-01-04T17:06:36.006Z,59.83
2023-01-04T17:08:37.537Z,59.60
2023-01-04T17:10:39.438Z,59.74
2023-01-04T17:12:47.693Z,59.55
2023-01-04T17:15:08.027Z,59.74
2023-01-04T17:17:15.572Z,59.84
2023-01-04T17:19:18.018Z,60.07
2023-01-04T17:21:35.676Z,59.92
2023-01-04T17:23:47.717Z,60.10
2023-01-04T17:25:55.379Z,60.17
2023-01-04T17:27:58.445Z,60.07
2023-01-04T17:30:02.460Z,60.23
2023-01-04T17:32:04.422Z,60.23
2023-01-04T17:34:08.291Z,60.33
2023-01-04T17:36:15.675Z,60.28
2023-01-04T17:38:18.577Z,60.62
2023-01-04T17:40:23.184Z,60.22
2023-01-04T17:42:25.259Z,60.48
2023-01-04T17:44:27.066Z,60.44
2023-01-04T17:46:35.885Z,60.87
2023-01-04T17:48:37.739Z,60.53
2023-01-04T17:50:42.008Z,60.73
2023-01-04T17:52:43.809Z,60.72
2023-01-04T17:54:45.521Z,60.67
2023-01-04T17:56:47.198Z,60.74
2023-01-04T17:58:48.651Z,60.52
2023-01-04T18:00:50.337Z,60.79
2023-01-04T18:02:51.937Z,60.64
2023-01-04T18:04:53.908Z,60.79
2023-01-04T18:06:57.394Z,60.74
2023-01-04T18:09:04.506Z,60.86
2023-01-04T18:11:08.299Z,60.55
2023-01-04T18:13:10.312Z,60.52
2023-01-04T18:15:14.450Z,60.77
2023-01-04T18:17:16.084Z,60.88
2023-01-04T18:19:17.682Z,60.86
2023-01-04T18:21:30.050Z,60.96
2023-01-04T18:23:31.910Z,60.98
2023-01-04T18:25:34.450Z,60.87
2023-01-04T18:27:38.977Z,60.73
2023-01-04T18:29:40.739Z,60.95
2023-01-04T18:31:42.198Z,60.87
2023-01-04T18:33:51.941Z,60.95
2023-01-04T18:35:53.681Z,60.90
2023-01-04T18:38:01.054Z,61.04
2023-01-04T18:40:04.398Z,60.90
2023-01-04T18:42:13.300Z,60.84
2023-01-04T18:46:42.093Z,60.56
2023-01-04T18:48:48.746Z,60.83
2023-01-04T18:50:53.535Z,60.87
2023-01-04T18:52:57.518Z,60.72
2023-01-04T18:54:59.110Z,60.79
2023-01-04T18:57:07.853Z,60.79
2023-01-04T18:59:09.997Z,60.75
2023-01-04T19:01:16.676Z,60.80
2023-01-04T19:03:24.250Z,61.00
2023-01-04T19:05:27.745Z,60.89
2023-01-04T19:07:32.072Z,60.84
2023-01-04T19:09:33.750Z,60.94
2023-01-04T19:11:36.290Z,60.82
2023-01-04T19:13:38.983Z,60.86
2023-01-04T19:15:47.657Z,60.97
2023-01-04T19:17:49.743Z,60.87
2023-01-04T19:19:52.983Z,61.14
2023-01-04T19:21:54.516Z,60.88
2023-01-04T19:23:56.600Z,60.83
2023-01-04T19:25:58.409Z,60.99
2023-01-04T19:28:00.081Z,60.92
2023-01-04T19:30:01.928Z,60.84
2023-01-04T19:32:05.022Z,60.89
2023-01-04T19:34:08.804Z,60.79
2023-01-04T19:36:12.598Z,61.12
2023-01-04T19:38:17.461Z,60.97
2023-01-04T19:40:19.167Z,60.97
2023-01-04T19:42:20.645Z,61.11
2023-01-04T19:44:23.813Z,61.11
2023-01-04T19:46:25.503Z,60.83
2023-01-04T19:48:27.410Z,60.92
2023-01-04T19:50:31.628Z,60.68
2023-01-04T19:52:37.520Z,60.81
2023-01-04T19:54:45.271Z,60.47
2023-01-04T19:56:49.255Z,60.33
2023-01-04T19:58:51.085Z,60.39
2023-01-04T20:00:55.342Z,60.38
2023-01-04T20:02:57.084Z,60.36
2023-01-04T20:05:01.856Z,60.39
2023-01-04T20:07:03.591Z,60.55
2023-01-04T20:09:05.477Z,60.08
2023-01-04T20:11:08.009Z,60.20
2023-01-04T20:13:09.689Z,60.15
2023-01-04T20:15:14.071Z,60.08
2023-01-04T20:17:16.182Z,60.03
2023-01-04T20:19:22.355Z,59.99
2023-01-04T20:21:24.198Z,60.03
2023-01-04T20:23:32.763Z,59.93
2023-01-04T20:25:38.922Z,60.00
2023-01-04T20:27:41.473Z,60.18
2023-01-04T20:29:42.953Z,59.85
2023-01-04T20:31:45.907Z,59.90
2023-01-04T20:33:47.849Z,59.78
2023-01-04T20:35:52.489Z,60.09
2023-01-04T20:37:59.731Z,59.92
2023-01-04T20:40:01.348Z,59.92
2023-01-04T20:42:25.283Z,60.01
2023-01-04T20:44:30.109Z,59.99
2023-01-04T20:46:32.970Z,60.06
2023-01-04T20:48:34.669Z,60.04
2023-01-04T20:50:36.376Z,60.01
2023-01-04T20:52:37.801Z,60.14
2023-01-04T20:54:39.378Z,60.13
2023-01-04T20:56:41.294Z,60.04
2023-01-04T20:58:47.754Z,60.11
2023-01-04T21:00:49.598Z,60.22
2023-01-04T21:02:52.167Z,59.97
2023-01-04T21:04:58.456Z,60.06
2023-01-04T21:07:00.098Z,60.07
2023-01-04T21:09:01.748Z,60.14
2023-01-04T21:11:04.652Z,60.00
2023-01-04T21:13:07.617Z,59.89
2023-01-04T21:15:09.531Z,59.97
2023-01-04T21:17:11.285Z,60.25
2023-01-04T21:19:15.612Z,60.22
2023-01-04T21:21:21.193Z,60.07
2023-01-04T21:23:25.415Z,60.12
2023-01-04T21:25:27.384Z,60.04
2023-01-04T21:27:31.358Z,60.21
2023-01-04T21:29:33.221Z,60.31
2023-01-04T21:31:35.660Z,60.14
2023-01-04T21:33:37.835Z,60.29
2023-01-04T21:35:40.577Z,60.16
2023-01-04T21:37:42.329Z,60.30
2023-01-04T21:39:43.918Z,60.20
2023-01-04T21:41:48.248Z,60.34
2023-01-04T21:43:51.741Z,60.41
2023-01-04T21:45:53.378Z,60.44
2023-01-04T21:47:55.376Z,60.42
2023-01-04T21:49:57.465Z,60.28
2023-01-04T21:51:59.352Z,60.34
2023-01-04T21:54:01.810Z,60.45
2023-01-04T21:56:08.697Z,60.48
2023-01-04T21:58:10.317Z,60.56
2023-01-04T22:00:15.233Z,60.46
2023-01-04T22:02:19.135Z,60.23
2023-01-04T22:04:23.370Z,60.87
2023-01-04T22:06:27.976Z,60.55
2023-01-04T22:08:30.252Z,60.60
2023-01-04T22:10:34.392Z,60.58
2023-01-04T22:12:36.307Z,60.38
2023-01-04T22:14:38.235Z,60.56
2023-01-04T22:16:40.031Z,60.57
2023-01-04T22:18:46.039Z,60.52
2023-01-04T22:21:00.490Z,60.62
2023-01-04T22:23:02.262Z,60.46
2023-01-04T22:25:04.017Z,60.50
2023-01-04T22:27:05.694Z,60.68
2023-01-04T22:29:13.161Z,60.61
2023-01-04T22:31:15.286Z,60.74
2023-01-04T22:33:20.091Z,60.29
2023-01-04T22:35:22.173Z,60.62
2023-01-04T22:37:23.936Z,60.64
2023-01-04T22:39:28.543Z,60.41
2023-01-04T22:41:30.095Z,60.35
2023-01-04T22:43:31.819Z,60.39
2023-01-04T22:45:33.571Z,60.37
2023-01-04T22:47:36.105Z,60.34
2023-01-04T22:49:39.978Z,60.34
2023-01-04T22:51:43.002Z,60.27
2023-01-04T22:53:47.159Z,60.23
2023-01-04T22:58:11.046Z,60.33
2023-01-04T23:00:14.773Z,60.18
2023-01-04T23:02:17.709Z,60.18
2023-01-04T23:04:19.818Z,60.28
2023-01-04T23:06:22.425Z,60.22
2023-01-04T23:08:26.933Z,60.12
2023-01-04T23:10:28.576Z,60.02
2023-01-04T23:12:33.265Z,60.05
2023-01-04T23:14:35.018Z,60.27
2023-01-04T23:16:36.815Z,60.15
2023-01-04T23:18:38.938Z,60.21
2023-01-04T23:20:40.535Z,59.96
2023-01-04T23:22:45.196Z,60.15
2023-01-04T23:24:48.645Z,60.06
2023-01-04T23:26:52.430Z,60.10
2023-01-04T23:28:57.979Z,60.28
2023-01-04T23:31:07.780Z,60.06
2023-01-04T23:33:10.666Z,60.34
2023-01-04T23:35:12.548Z,60.34
2023-01-04T23:37:15.422Z,60.36
2023-01-04T23:39:17.118Z,60.23
2023-01-04T23:41:19.015Z,60.06
2023-01-04T23:43:20.585Z,60.04
2023-01-04T23:45:26.239Z,60.29
2023-01-04T23:47:27.962Z,59.82
2023-01-04T23:49:31.275Z,60.08
2023-01-04T23:51:34.289Z,60.26
2023-01-04T23:53:36.007Z,60.07
2023-01-04T23:55:37.815Z,60.24
2023-01-04T23:57:39.632Z,60.37
2023-01-04T23:59:41.335Z,60.21
